Time;durP1;ratioP1;P1;durP2;ratioP2;P2;SDS_P1;SDS_P2;PMS_P1;PMS_P2;Temp;Humidity;BMP_temperature;BMP_pressure;BME280_temperature;BME280_humidity;BME280_pressure;Samples;Min_cycle;Max_cycle;Signal;HPM_P1;HPM_P2
2023/06/08 09:32:12;;;;;;;14.55;10.32;;;20.60;58.10;;;;;;5492338;23;20286;-78
2023/06/08 11:58:17;;;;;;;14.38;8.70;;;21.30;56.90;;;;;;4760890;30;20246;-78
2023/06/08 12:28:33;;;;;;;12.40;8.60;;;21.30;57.40;;;;;;4871136;29;20242;-78
2023/06/08 13:30:57;;;;;;;13.85;8.30;;;21.50;57.30;;;;;;4631609;30;20308;-79
2023/06/08 13:45:57;;;;;;;13.73;7.50;;;21.50;57.50;;;;;;4639057;30;20240;-76
2023/06/08 17:03:04;;;;;;;10.40;6.15;;;22.80;56.00;;;;;;4842264;29;20319;-79
2023/06/08 17:25:34;;;;;;;8.88;5.03;;;22.90;55.70;;;;;;4771671;29;20230;-78
2023/06/08 17:59:04;;;;;;;7.90;5.07;;;22.80;54.80;;;;;;4821474;29;20262;-81
2023/06/08 18:01:34;;;;;;;9.30;5.25;;;22.80;55.10;;;;;;4806647;29;20247;-81
2023/06/08 18:04:07;;;;;;;7.90;4.93;;;22.80;55.10;;;;;;4817152;29;20525;-81
2023/06/08 18:06:35;;;;;;;8.65;5.20;;;22.80;55.10;;;;;;4821215;29;20295;-81
2023/06/08 18:09:10;;;;;;;9.40;4.85;;;22.70;55.00;;;;;;4836900;29;20660;-81
2023/06/08 18:14:28;;;;;;;7.70;5.03;;;22.70;55.10;;;;;;4838818;29;20255;-81
2023/06/08 18:19:44;;;;;;;6.05;4.47;;;22.70;55.00;;;;;;4837305;29;20211;-81
2023/06/08 18:24:58;;;;;;;9.43;5.50;;;22.60;54.80;;;;;;4857721;29;20470;-81
2023/06/08 18:30:16;;;;;;;7.88;4.72;;;22.60;54.80;;;;;;4959283;28;20208;-81
2023/06/08 18:32:48;;;;;;;6.97;5.00;;;22.60;54.80;;;;;;4972132;28;20214;-81
2023/06/08 18:35:16;;;;;;;10.18;4.85;;;22.60;54.70;;;;;;4972094;28;20677;-80
2023/06/08 18:43:07;;;;;;;8.45;4.82;;;22.50;54.50;;;;;;4991046;28;20228;-81
2023/06/08 18:45:47;;;;;;;6.90;4.68;;;22.50;54.50;;;;;;4991198;28;20202;-81
2023/06/08 18:51:01;;;;;;;8.57;4.63;;;22.50;54.60;;;;;;4982023;28;20209;-81
2023/06/08 18:53:28;;;;;;;6.65;5.03;;;22.50;54.50;;;;;;4991305;28;20214;-81
2023/06/08 18:55:57;;;;;;;8.38;4.75;;;22.50;54.50;;;;;;4982837;28;20210;-81
2023/06/08 18:58:26;;;;;;;7.70;5.00;;;22.40;54.40;;;;;;4991273;28;20221;-82
2023/06/08 19:03:41;;;;;;;7.38;4.70;;;22.40;54.40;;;;;;4990452;28;20539;-81
2023/06/08 19:06:16;;;;;;;8.70;4.45;;;22.40;54.30;;;;;;4990820;28;20198;-81
2023/06/08 19:08:44;;;;;;;6.30;4.25;;;22.40;54.30;;;;;;4990988;28;20225;-81
2023/06/08 19:11:13;;;;;;;9.27;5.03;;;22.40;54.30;;;;;;4978907;28;20198;-81
2023/06/08 19:13:40;;;;;;;9.05;5.07;;;22.40;54.20;;;;;;4971578;28;20229;-81
2023/06/08 19:19:00;;;;;;;7.22;4.70;;;22.30;54.10;;;;;;4968135;28;20222;-81
2023/06/08 19:21:35;;;;;;;6.22;3.78;;;22.30;54.10;;;;;;4957545;28;20233;-81
2023/06/08 19:24:02;;;;;;;8.32;4.82;;;22.30;54.10;;;;;;4959277;28;20220;-81
2023/06/08 19:26:40;;;;;;;6.78;4.53;;;22.30;54.00;;;;;;4975780;28;20589;-81
2023/06/08 19:29:12;;;;;;;7.97;4.95;;;22.30;54.00;;;;;;4957844;28;20234;-81
2023/06/08 19:31:40;;;;;;;8.77;4.80;;;22.30;54.10;;;;;;4975373;28;20250;-81
2023/06/08 19:34:09;;;;;;;6.55;4.57;;;22.20;53.90;;;;;;4975491;28;20305;-81
2023/06/08 19:36:37;;;;;;;6.68;4.30;;;22.30;54.00;;;;;;4957759;28;20194;-81
2023/06/08 19:39:04;;;;;;;8.30;4.72;;;22.20;53.80;;;;;;4975278;28;20230;-81
2023/06/08 19:41:32;;;;;;;7.40;4.50;;;22.20;53.80;;;;;;4973442;28;20250;-81
2023/06/08 19:43:59;;;;;;;7.28;4.43;;;22.20;53.80;;;;;;4975000;28;20770;-81
2023/06/08 19:46:26;;;;;;;7.13;4.68;;;22.20;53.80;;;;;;4986866;28;20225;-81
2023/06/08 19:48:56;;;;;;;7.63;4.45;;;22.20;53.80;;;;;;4977500;28;20234;-81
2023/06/08 19:51:23;;;;;;;7.82;4.72;;;22.20;53.70;;;;;;4974708;28;20235;-81
2023/06/08 19:53:53;;;;;;;7.38;4.68;;;22.10;53.60;;;;;;4979804;28;20704;-81
2023/06/08 19:56:22;;;;;;;6.88;4.45;;;22.20;53.70;;;;;;4971443;28;20199;-81
2023/06/08 19:58:49;;;;;;;10.18;4.80;;;22.10;53.70;;;;;;4993606;28;20254;-81
2023/06/08 20:01:16;;;;;;;8.60;4.65;;;22.10;53.60;;;;;;4994689;28;20198;-81
2023/06/08 20:03:43;;;;;;;9.95;4.50;;;22.10;53.60;;;;;;4995641;28;20232;-81
2023/06/08 20:06:13;;;;;;;6.78;4.57;;;22.10;53.60;;;;;;4995576;28;20225;-81
2023/06/08 20:08:45;;;;;;;9.10;5.30;;;22.10;53.60;;;;;;5002853;28;20225;-81
2023/06/08 20:11:14;;;;;;;9.98;5.25;;;22.10;53.60;;;;;;4995432;28;20635;-81
2023/06/08 20:13:42;;;;;;;5.43;4.40;;;22.10;53.60;;;;;;4978835;28;20222;-81
2023/06/08 20:16:14;;;;;;;7.40;4.68;;;22.10;53.60;;;;;;4995373;28;20229;-81
2023/06/08 20:18:41;;;;;;;7.43;4.72;;;22.00;53.60;;;;;;4978208;28;20222;-81
2023/06/08 20:21:09;;;;;;;7.80;4.97;;;22.00;53.50;;;;;;4977582;28;20198;-81
2023/06/08 20:23:41;;;;;;;7.05;4.53;;;22.00;53.50;;;;;;4995494;28;20226;-81
2023/06/08 20:26:08;;;;;;;8.15;4.50;;;22.00;53.60;;;;;;4990694;28;20226;-81
2023/06/08 20:28:39;;;;;;;8.98;4.63;;;22.00;53.50;;;;;;4995306;28;20221;-80
2023/06/08 20:31:06;;;;;;;9.05;4.95;;;22.00;53.50;;;;;;4994959;28;20190;-81
2023/06/08 20:33:36;;;;;;;9.30;4.90;;;22.00;53.60;;;;;;4977713;28;20245;-81
2023/06/08 20:36:03;;;;;;;7.78;4.53;;;22.00;53.60;;;;;;4995284;28;20198;-81
2023/06/08 20:38:34;;;;;;;7.38;4.63;;;22.00;53.60;;;;;;4977796;28;20296;-81
2023/06/08 20:41:11;;;;;;;8.13;4.75;;;21.90;53.40;;;;;;4994823;28;20193;-81
2023/06/08 20:43:46;;;;;;;8.73;4.78;;;22.00;53.60;;;;;;4988485;28;20241;-81
2023/06/08 20:46:13;;;;;;;6.88;4.50;;;21.90;53.50;;;;;;4977831;28;20197;-81
2023/06/08 20:51:22;;;;;;;7.85;4.85;;;21.90;53.40;;;;;;4993294;28;20209;-81
2023/06/08 20:53:49;;;;;;;10.32;4.82;;;21.90;53.40;;;;;;4992758;28;20292;-81
2023/06/08 20:56:23;;;;;;;8.40;4.97;;;21.80;53.30;;;;;;4994406;28;20241;-81
2023/06/08 20:58:52;;;;;;;7.97;4.43;;;21.90;53.40;;;;;;4994537;28;20225;-81
2023/06/08 21:01:19;;;;;;;7.53;4.45;;;21.90;53.50;;;;;;4994265;28;20210;-80
2023/06/08 21:03:48;;;;;;;8.23;4.63;;;21.90;53.40;;;;;;4994798;28;20312;-81
2023/06/08 21:06:16;;;;;;;10.00;5.18;;;21.90;53.50;;;;;;4994539;28;20660;-81
2023/06/08 21:08:46;;;;;;;9.50;5.00;;;21.80;53.40;;;;;;5001541;28;20483;-81
2023/06/08 21:11:14;;;;;;;7.97;4.78;;;21.80;53.30;;;;;;5007792;28;20198;-81
2023/06/08 21:13:43;;;;;;;8.15;4.60;;;21.80;53.30;;;;;;4977159;28;20214;-81
2023/06/08 21:16:11;;;;;;;7.05;4.28;;;21.80;53.30;;;;;;4988270;28;20230;-81
2023/06/08 21:18:38;;;;;;;10.02;5.10;;;21.80;53.30;;;;;;4994555;28;20253;-81
2023/06/08 21:21:05;;;;;;;6.93;4.72;;;21.80;53.40;;;;;;4994581;28;20221;-80
2023/06/08 21:23:33;;;;;;;8.77;5.07;;;21.80;53.40;;;;;;4993888;28;20305;-81
2023/06/08 21:26:02;;;;;;;9.18;4.78;;;21.80;53.40;;;;;;4994075;28;20264;-80
2023/06/08 21:28:30;;;;;;;8.55;4.88;;;21.80;53.40;;;;;;4994082;28;20234;-81
2023/06/08 21:30:59;;;;;;;11.48;6.00;;;21.80;53.40;;;;;;4976747;28;20656;-81
2023/06/08 21:33:32;;;;;;;10.75;4.80;;;21.70;53.30;;;;;;4976834;28;20695;-81
2023/06/08 21:36:00;;;;;;;7.82;4.90;;;21.70;53.40;;;;;;4994155;28;20202;-81
2023/06/08 21:38:27;;;;;;;10.02;5.05;;;21.70;53.40;;;;;;4993868;28;20269;-81
2023/06/08 21:40:55;;;;;;;6.25;4.47;;;21.70;53.40;;;;;;4992057;28;20190;-80
2023/06/08 21:43:23;;;;;;;10.00;4.97;;;21.70;53.40;;;;;;4993296;28;20304;-81
2023/06/08 21:45:51;;;;;;;7.22;4.85;;;21.70;53.50;;;;;;4993979;28;20198;-81
2023/06/08 21:48:21;;;;;;;8.32;4.70;;;21.70;53.50;;;;;;4993877;28;20217;-81
2023/06/08 21:50:51;;;;;;;8.60;4.72;;;21.70;53.50;;;;;;4993209;28;20731;-81
2023/06/08 21:53:18;;;;;;;7.68;4.93;;;21.70;53.60;;;;;;4973993;28;20257;-81
2023/06/08 21:55:46;;;;;;;10.50;5.25;;;21.70;53.60;;;;;;4974294;28;20198;-81
2023/06/08 21:58:13;;;;;;;8.02;4.93;;;21.70;53.60;;;;;;4992718;28;20225;-81
2023/06/08 22:00:40;;;;;;;6.82;4.35;;;21.60;53.50;;;;;;4991988;28;20276;-81
2023/06/08 22:03:07;;;;;;;8.55;5.05;;;21.60;53.50;;;;;;4993159;28;20225;-81
2023/06/08 22:05:36;;;;;;;8.65;4.97;;;21.60;53.60;;;;;;4993388;28;20652;-80
2023/06/08 22:08:04;;;;;;;9.43;5.20;;;21.60;53.60;;;;;;4994765;28;20260;-80
2023/06/08 22:10:31;;;;;;;9.13;5.32;;;21.60;53.50;;;;;;5001193;28;20272;-81
2023/06/08 22:12:59;;;;;;;8.65;5.18;;;21.60;53.50;;;;;;4993002;28;20230;-81
2023/06/08 22:15:27;;;;;;;8.63;5.30;;;21.60;53.60;;;;;;4986748;28;20643;-81
2023/06/08 22:17:54;;;;;;;9.55;4.90;;;21.60;53.60;;;;;;4989120;28;20261;-81
2023/06/08 22:20:22;;;;;;;11.45;4.80;;;21.50;53.60;;;;;;4975955;28;20198;-81
2023/06/08 22:22:52;;;;;;;8.85;5.10;;;21.60;53.60;;;;;;4975463;28;20277;-81
2023/06/08 22:25:21;;;;;;;8.95;5.05;;;21.60;53.60;;;;;;4993507;28;20209;-81
2023/06/08 22:27:50;;;;;;;11.82;4.82;;;21.60;53.70;;;;;;4959905;28;20249;-81
2023/06/08 22:30:18;;;;;;;8.25;5.20;;;21.50;53.60;;;;;;4989424;28;20226;-81
2023/06/08 22:32:45;;;;;;;8.63;4.75;;;21.60;53.70;;;;;;4975800;28;20272;-81
2023/06/08 22:35:13;;;;;;;7.85;5.03;;;21.60;53.80;;;;;;4991338;28;20225;-81
2023/06/08 22:37:40;;;;;;;9.88;5.05;;;21.50;53.70;;;;;;4975440;28;20782;-81
2023/06/08 22:40:11;;;;;;;10.80;5.00;;;21.50;53.70;;;;;;4993032;28;20607;-79
2023/06/08 22:42:40;;;;;;;11.73;5.07;;;21.50;53.70;;;;;;4993016;28;20686;-81
2023/06/08 22:45:08;;;;;;;8.25;4.68;;;21.50;53.70;;;;;;4992811;28;20194;-81
2023/06/08 22:47:41;;;;;;;9.60;4.70;;;21.50;53.70;;;;;;4990880;28;20234;-81
2023/06/08 22:50:09;;;;;;;10.10;5.00;;;21.50;53.70;;;;;;4975522;28;20226;-81
2023/06/08 22:52:39;;;;;;;9.90;5.05;;;21.40;53.60;;;;;;4992431;28;20750;-81
2023/06/08 22:55:07;;;;;;;12.00;5.45;;;21.50;53.70;;;;;;4975055;28;20273;-80
2023/06/08 22:57:40;;;;;;;8.02;4.65;;;21.50;53.80;;;;;;4992319;28;20244;-81
2023/06/08 23:00:10;;;;;;;11.00;4.90;;;21.50;53.80;;;;;;4992517;28;20680;-81
2023/06/08 23:02:40;;;;;;;8.18;4.93;;;21.50;53.80;;;;;;4991438;28;20245;-81
2023/06/08 23:05:08;;;;;;;7.95;4.88;;;21.50;53.80;;;;;;4992852;28;20197;-81
2023/06/08 23:07:36;;;;;;;10.82;4.95;;;21.40;53.80;;;;;;4990729;28;20233;-81
2023/06/08 23:10:04;;;;;;;13.02;5.45;;;21.40;53.80;;;;;;5010283;28;20582;-81
2023/06/08 23:12:33;;;;;;;9.07;4.53;;;21.40;53.80;;;;;;5009501;28;20202;-81
2023/06/08 23:15:03;;;;;;;12.63;5.47;;;21.40;53.90;;;;;;4975515;28;20220;-81
2023/06/08 23:17:31;;;;;;;10.02;4.78;;;21.40;53.90;;;;;;4974948;28;20205;-81
2023/06/08 23:19:59;;;;;;;8.75;5.05;;;21.40;53.90;;;;;;4992321;28;20217;-81
2023/06/08 23:22:26;;;;;;;7.85;4.43;;;21.40;53.90;;;;;;4992214;28;20656;-80
2023/06/08 23:24:54;;;;;;;7.07;4.70;;;21.40;53.90;;;;;;4992573;28;20300;-81
2023/06/08 23:27:23;;;;;;;10.88;5.40;;;21.40;53.90;;;;;;4973455;28;20648;-81
2023/06/08 23:29:50;;;;;;;10.95;4.38;;;21.40;54.00;;;;;;4992089;28;20320;-81
2023/06/08 23:32:20;;;;;;;10.25;5.18;;;21.40;54.00;;;;;;4990450;28;20204;-81
2023/06/08 23:34:49;;;;;;;9.60;4.90;;;21.30;53.90;;;;;;5007464;28;20221;-81
2023/06/08 23:37:16;;;;;;;10.70;4.90;;;21.40;54.00;;;;;;4992292;28;20232;-80
2023/06/08 23:39:44;;;;;;;10.15;4.72;;;21.40;54.00;;;;;;4992293;28;20766;-81
2023/06/08 23:42:13;;;;;;;9.48;4.82;;;21.40;54.10;;;;;;4992034;28;20194;-81
2023/06/08 23:44:43;;;;;;;8.02;4.32;;;21.30;54.00;;;;;;4992330;28;20284;-81
2023/06/08 23:47:11;;;;;;;7.95;4.20;;;21.30;54.00;;;;;;4992670;28;20236;-81
2023/06/08 23:49:40;;;;;;;13.38;5.93;;;21.30;54.00;;;;;;4992081;28;20237;-81
2023/06/08 23:52:08;;;;;;;12.73;5.25;;;21.30;54.10;;;;;;4992155;28;20194;-81
2023/06/08 23:54:35;;;;;;;12.43;5.50;;;21.30;54.10;;;;;;4989433;28;20287;-80
2023/06/08 23:57:03;;;;;;;8.50;5.03;;;21.30;54.10;;;;;;4991809;28;20208;-81
2023/06/08 23:59:30;;;;;;;10.90;5.05;;;21.30;54.10;;;;;;4991808;28;20257;-80
